sensor_id;sensor_type;location;lat;lon;timestamp;P1;durP1;ratioP1;P2;durP2;ratioP2
67363;SDS011;54250;45.572;38.086;2023-08-08T00:01:31;31.25;;;14.90;;
67363;SDS011;54250;45.572;38.086;2023-08-08T00:03:57;36.25;;;16.60;;
67363;SDS011;54250;45.572;38.086;2023-08-08T00:06:23;32.05;;;15.52;;
67363;SDS011;54250;45.572;38.086;2023-08-08T00:08:49;37.80;;;14.88;;
67363;SDS011;54250;45.572;38.086;2023-08-08T00:11:15;28.02;;;13.70;;
67363;SDS011;54250;45.572;38.086;2023-08-08T00:13:40;31.25;;;14.10;;
67363;SDS011;54250;45.572;38.086;2023-08-08T00:16:06;30.05;;;14.82;;
67363;SDS011;54250;45.572;38.086;2023-08-08T00:18:32;39.88;;;14.52;;
67363;SDS011;54250;45.572;38.086;2023-08-08T00:20:58;34.00;;;14.90;;
67363;SDS011;54250;45.572;38.086;2023-08-08T00:23:24;29.75;;;13.98;;
67363;SDS011;54250;45.572;38.086;2023-08-08T00:25:50;23.15;;;12.25;;
67363;SDS011;54250;45.572;38.086;2023-08-08T00:28:17;31.05;;;12.18;;
67363;SDS011;54250;45.572;38.086;2023-08-08T00:30:43;27.13;;;12.85;;
67363;SDS011;54250;45.572;38.086;2023-08-08T00:33:09;32.65;;;15.82;;
67363;SDS011;54250;45.572;38.086;2023-08-08T00:35:35;56.22;;;16.38;;
67363;SDS011;54250;45.572;38.086;2023-08-08T00:38:02;36.58;;;17.30;;
67363;SDS011;54250;45.572;38.086;2023-08-08T00:40:28;65.57;;;20.85;;
67363;SDS011;54250;45.572;38.086;2023-08-08T00:42:54;123.35;;;26.33;;
67363;SDS011;54250;45.572;38.086;2023-08-08T00:45:20;79.13;;;26.13;;
67363;SDS011;54250;45.572;38.086;2023-08-08T00:47:47;189.27;;;29.90;;
67363;SDS011;54250;45.572;38.086;2023-08-08T00:50:13;159.90;;;28.48;;
67363;SDS011;54250;45.572;38.086;2023-08-08T00:52:40;88.65;;;25.77;;
67363;SDS011;54250;45.572;38.086;2023-08-08T00:55:07;84.38;;;25.77;;
67363;SDS011;54250;45.572;38.086;2023-08-08T00:57:34;60.55;;;23.98;;
67363;SDS011;54250;45.572;38.086;2023-08-08T01:00:06;141.43;;;30.88;;
67363;SDS011;54250;45.572;38.086;2023-08-08T01:02:35;183.77;;;29.65;;
67363;SDS011;54250;45.572;38.086;2023-08-08T01:05:01;94.65;;;27.63;;
67363;SDS011;54250;45.572;38.086;2023-08-08T01:07:34;68.63;;;23.50;;
67363;SDS011;54250;45.572;38.086;2023-08-08T01:10:09;112.95;;;22.55;;
67363;SDS011;54250;45.572;38.086;2023-08-08T01:12:40;65.38;;;20.50;;
67363;SDS011;54250;45.572;38.086;2023-08-08T01:15:09;46.63;;;18.60;;
67363;SDS011;54250;45.572;38.086;2023-08-08T01:17:39;63.10;;;19.60;;
67363;SDS011;54250;45.572;38.086;2023-08-08T01:20:07;42.85;;;16.38;;
67363;SDS011;54250;45.572;38.086;2023-08-08T01:22:43;68.45;;;19.75;;
67363;SDS011;54250;45.572;38.086;2023-08-08T01:25:22;42.05;;;16.80;;
67363;SDS011;54250;45.572;38.086;2023-08-08T01:27:49;47.38;;;18.85;;
67363;SDS011;54250;45.572;38.086;2023-08-08T01:30:15;48.13;;;17.85;;
67363;SDS011;54250;45.572;38.086;2023-08-08T01:32:41;47.97;;;17.65;;
67363;SDS011;54250;45.572;38.086;2023-08-08T01:35:07;40.88;;;15.73;;
67363;SDS011;54250;45.572;38.086;2023-08-08T01:37:38;42.60;;;14.90;;
67363;SDS011;54250;45.572;38.086;2023-08-08T01:40:09;41.17;;;16.40;;
67363;SDS011;54250;45.572;38.086;2023-08-08T01:42:38;40.85;;;16.50;;
67363;SDS011;54250;45.572;38.086;2023-08-08T01:45:04;44.95;;;16.77;;
67363;SDS011;54250;45.572;38.086;2023-08-08T01:47:31;36.45;;;14.70;;
67363;SDS011;54250;45.572;38.086;2023-08-08T01:49:57;44.92;;;17.27;;
67363;SDS011;54250;45.572;38.086;2023-08-08T01:52:23;317.80;;;29.77;;
67363;SDS011;54250;45.572;38.086;2023-08-08T01:54:49;430.40;;;33.13;;
67363;SDS011;54250;45.572;38.086;2023-08-08T01:57:15;94.97;;;21.42;;
67363;SDS011;54250;45.572;38.086;2023-08-08T01:59:41;94.32;;;21.67;;
67363;SDS011;54250;45.572;38.086;2023-08-08T02:02:07;73.75;;;22.38;;
67363;SDS011;54250;45.572;38.086;2023-08-08T02:04:33;98.88;;;22.55;;
67363;SDS011;54250;45.572;38.086;2023-08-08T02:06:59;61.90;;;20.33;;
67363;SDS011;54250;45.572;38.086;2023-08-08T02:09:25;119.93;;;23.08;;
67363;SDS011;54250;45.572;38.086;2023-08-08T02:11:52;102.75;;;21.38;;
67363;SDS011;54250;45.572;38.086;2023-08-08T02:14:18;164.48;;;25.10;;
67363;SDS011;54250;45.572;38.086;2023-08-08T02:16:44;81.75;;;22.15;;
67363;SDS011;54250;45.572;38.086;2023-08-08T02:19:10;59.15;;;19.98;;
67363;SDS011;54250;45.572;38.086;2023-08-08T02:21:36;52.55;;;19.70;;
67363;SDS011;54250;45.572;38.086;2023-08-08T02:24:02;63.55;;;20.60;;
67363;SDS011;54250;45.572;38.086;2023-08-08T02:26:28;61.10;;;18.45;;
67363;SDS011;54250;45.572;38.086;2023-08-08T02:28:54;52.83;;;18.30;;
67363;SDS011;54250;45.572;38.086;2023-08-08T02:31:20;48.50;;;18.15;;
67363;SDS011;54250;45.572;38.086;2023-08-08T02:33:50;52.35;;;17.95;;
67363;SDS011;54250;45.572;38.086;2023-08-08T02:36:17;43.95;;;15.93;;
67363;SDS011;54250;45.572;38.086;2023-08-08T02:38:43;37.75;;;16.88;;
67363;SDS011;54250;45.572;38.086;2023-08-08T02:41:10;37.13;;;16.80;;
67363;SDS011;54250;45.572;38.086;2023-08-08T02:43:36;40.65;;;16.75;;
67363;SDS011;54250;45.572;38.086;2023-08-08T02:46:02;43.85;;;16.52;;
67363;SDS011;54250;45.572;38.086;2023-08-08T02:48:28;35.03;;;17.50;;
67363;SDS011;54250;45.572;38.086;2023-08-08T02:50:55;39.35;;;16.63;;
67363;SDS011;54250;45.572;38.086;2023-08-08T02:53:24;40.17;;;19.00;;
67363;SDS011;54250;45.572;38.086;2023-08-08T02:55:50;36.30;;;19.20;;
67363;SDS011;54250;45.572;38.086;2023-08-08T02:58:16;28.98;;;17.83;;
67363;SDS011;54250;45.572;38.086;2023-08-08T03:00:43;37.03;;;16.85;;
67363;SDS011;54250;45.572;38.086;2023-08-08T03:03:12;27.30;;;14.57;;
67363;SDS011;54250;45.572;38.086;2023-08-08T03:05:41;25.98;;;10.82;;
67363;SDS011;54250;45.572;38.086;2023-08-08T03:08:09;16.83;;;8.10;;
67363;SDS011;54250;45.572;38.086;2023-08-08T03:10:36;13.07;;;6.93;;
67363;SDS011;54250;45.572;38.086;2023-08-08T03:13:03;14.30;;;6.22;;
67363;SDS011;54250;45.572;38.086;2023-08-08T03:15:29;25.23;;;6.35;;
67363;SDS011;54250;45.572;38.086;2023-08-08T03:17:56;13.85;;;5.80;;
67363;SDS011;54250;45.572;38.086;2023-08-08T03:20:23;21.92;;;5.97;;
67363;SDS011;54250;45.572;38.086;2023-08-08T03:22:49;12.60;;;5.68;;
67363;SDS011;54250;45.572;38.086;2023-08-08T03:25:15;11.07;;;5.60;;
67363;SDS011;54250;45.572;38.086;2023-08-08T03:27:41;10.45;;;4.68;;
67363;SDS011;54250;45.572;38.086;2023-08-08T03:30:11;12.18;;;4.28;;
67363;SDS011;54250;45.572;38.086;2023-08-08T03:32:41;8.27;;;3.97;;
67363;SDS011;54250;45.572;38.086;2023-08-08T03:35:07;5.18;;;4.00;;
67363;SDS011;54250;45.572;38.086;2023-08-08T03:37:36;8.82;;;3.80;;
67363;SDS011;54250;45.572;38.086;2023-08-08T03:40:03;25.08;;;5.15;;
67363;SDS011;54250;45.572;38.086;2023-08-08T03:42:29;21.98;;;4.57;;
67363;SDS011;54250;45.572;38.086;2023-08-08T03:44:56;10.40;;;3.88;;
67363;SDS011;54250;45.572;38.086;2023-08-08T03:47:22;14.35;;;4.60;;
67363;SDS011;54250;45.572;38.086;2023-08-08T03:49:48;7.65;;;3.92;;
67363;SDS011;54250;45.572;38.086;2023-08-08T03:52:14;17.48;;;4.35;;
67363;SDS011;54250;45.572;38.086;2023-08-08T03:54:40;13.77;;;4.13;;
67363;SDS011;54250;45.572;38.086;2023-08-08T03:57:05;10.68;;;3.80;;
67363;SDS011;54250;45.572;38.086;2023-08-08T03:59:32;17.63;;;4.00;;
67363;SDS011;54250;45.572;38.086;2023-08-08T04:01:58;18.63;;;3.60;;
67363;SDS011;54250;45.572;38.086;2023-08-08T04:04:23;11.18;;;3.28;;
67363;SDS011;54250;45.572;38.086;2023-08-08T04:06:49;6.05;;;2.88;;
67363;SDS011;54250;45.572;38.086;2023-08-08T04:09:16;8.88;;;3.10;;
67363;SDS011;54250;45.572;38.086;2023-08-08T04:11:42;8.13;;;3.08;;
67363;SDS011;54250;45.572;38.086;2023-08-08T04:14:08;15.63;;;3.17;;
67363;SDS011;54250;45.572;38.086;2023-08-08T04:16:33;8.95;;;2.70;;
67363;SDS011;54250;45.572;38.086;2023-08-08T04:18:59;8.40;;;2.40;;
67363;SDS011;54250;45.572;38.086;2023-08-08T04:21:28;6.03;;;2.22;;
67363;SDS011;54250;45.572;38.086;2023-08-08T04:23:57;6.10;;;2.35;;
67363;SDS011;54250;45.572;38.086;2023-08-08T04:26:24;10.52;;;2.67;;
67363;SDS011;54250;45.572;38.086;2023-08-08T04:28:51;8.60;;;2.03;;
67363;SDS011;54250;45.572;38.086;2023-08-08T04:31:17;4.60;;;1.90;;
67363;SDS011;54250;45.572;38.086;2023-08-08T04:33:43;3.88;;;2.20;;
67363;SDS011;54250;45.572;38.086;2023-08-08T04:36:10;6.95;;;1.92;;
67363;SDS011;54250;45.572;38.086;2023-08-08T04:38:35;10.20;;;2.17;;
67363;SDS011;54250;45.572;38.086;2023-08-08T04:41:01;5.55;;;2.08;;
67363;SDS011;54250;45.572;38.086;2023-08-08T04:43:27;8.88;;;2.17;;
67363;SDS011;54250;45.572;38.086;2023-08-08T04:45:53;15.45;;;2.20;;
67363;SDS011;54250;45.572;38.086;2023-08-08T04:48:19;16.67;;;2.20;;
67363;SDS011;54250;45.572;38.086;2023-08-08T04:50:46;48.92;;;22.40;;
67363;SDS011;54250;45.572;38.086;2023-08-08T04:53:12;11.18;;;2.30;;
67363;SDS011;54250;45.572;38.086;2023-08-08T04:55:38;12.82;;;3.25;;
67363;SDS011;54250;45.572;38.086;2023-08-08T04:58:04;7.55;;;2.25;;
67363;SDS011;54250;45.572;38.086;2023-08-08T05:00:30;6.28;;;2.22;;
67363;SDS011;54250;45.572;38.086;2023-08-08T05:02:56;6.22;;;2.05;;
67363;SDS011;54250;45.572;38.086;2023-08-08T05:05:22;8.63;;;1.92;;
67363;SDS011;54250;45.572;38.086;2023-08-08T05:07:48;4.85;;;1.60;;
67363;SDS011;54250;45.572;38.086;2023-08-08T05:10:14;7.47;;;2.97;;
67363;SDS011;54250;45.572;38.086;2023-08-08T05:12:40;5.60;;;2.00;;
67363;SDS011;54250;45.572;38.086;2023-08-08T05:15:06;7.50;;;1.70;;
67363;SDS011;54250;45.572;38.086;2023-08-08T05:17:32;8.55;;;1.55;;
67363;SDS011;54250;45.572;38.086;2023-08-08T05:19:58;3.78;;;1.65;;
67363;SDS011;54250;45.572;38.086;2023-08-08T05:22:25;8.68;;;1.95;;
67363;SDS011;54250;45.572;38.086;2023-08-08T05:24:51;2.45;;;1.42;;
67363;SDS011;54250;45.572;38.086;2023-08-08T05:27:17;7.47;;;1.80;;
67363;SDS011;54250;45.572;38.086;2023-08-08T05:29:43;23.58;;;10.15;;
67363;SDS011;54250;45.572;38.086;2023-08-08T05:32:09;3.95;;;2.20;;
67363;SDS011;54250;45.572;38.086;2023-08-08T05:34:35;7.40;;;1.80;;
67363;SDS011;54250;45.572;38.086;2023-08-08T05:37:01;6.00;;;1.88;;
67363;SDS011;54250;45.572;38.086;2023-08-08T05:39:27;3.13;;;1.70;;
67363;SDS011;54250;45.572;38.086;2023-08-08T05:41:53;5.75;;;1.88;;
67363;SDS011;54250;45.572;38.086;2023-08-08T05:44:19;7.18;;;1.73;;
67363;SDS011;54250;45.572;38.086;2023-08-08T05:46:45;18.15;;;2.20;;
67363;SDS011;54250;45.572;38.086;2023-08-08T05:49:11;9.90;;;1.90;;
67363;SDS011;54250;45.572;38.086;2023-08-08T05:51:36;9.43;;;1.98;;
67363;SDS011;54250;45.572;38.086;2023-08-08T05:54:02;11.25;;;2.10;;
67363;SDS011;54250;45.572;38.086;2023-08-08T05:56:35;6.10;;;1.50;;
67363;SDS011;54250;45.572;38.086;2023-08-08T05:59:02;8.85;;;2.47;;
67363;SDS011;54250;45.572;38.086;2023-08-08T06:01:28;32.45;;;3.30;;
67363;SDS011;54250;45.572;38.086;2023-08-08T06:03:55;4.82;;;1.40;;
67363;SDS011;54250;45.572;38.086;2023-08-08T06:06:23;18.35;;;4.18;;
67363;SDS011;54250;45.572;38.086;2023-08-08T06:08:52;11.88;;;4.68;;
67363;SDS011;54250;45.572;38.086;2023-08-08T06:11:18;17.98;;;7.00;;
67363;SDS011;54250;45.572;38.086;2023-08-08T06:13:44;12.07;;;3.50;;
67363;SDS011;54250;45.572;38.086;2023-08-08T06:16:10;16.85;;;5.30;;
67363;SDS011;54250;45.572;38.086;2023-08-08T06:18:36;7.80;;;3.20;;
67363;SDS011;54250;45.572;38.086;2023-08-08T06:21:02;11.38;;;3.60;;
67363;SDS011;54250;45.572;38.086;2023-08-08T06:23:28;9.68;;;4.15;;
67363;SDS011;54250;45.572;38.086;2023-08-08T06:25:54;8.27;;;1.83;;
67363;SDS011;54250;45.572;38.086;2023-08-08T06:28:20;7.38;;;1.95;;
67363;SDS011;54250;45.572;38.086;2023-08-08T06:30:46;4.13;;;1.90;;
67363;SDS011;54250;45.572;38.086;2023-08-08T06:33:12;13.02;;;2.47;;
67363;SDS011;54250;45.572;38.086;2023-08-08T06:35:38;11.05;;;2.08;;
67363;SDS011;54250;45.572;38.086;2023-08-08T06:38:04;9.48;;;2.42;;
67363;SDS011;54250;45.572;38.086;2023-08-08T06:40:32;9.20;;;2.30;;
67363;SDS011;54250;45.572;38.086;2023-08-08T06:42:58;9.55;;;2.50;;
67363;SDS011;54250;45.572;38.086;2023-08-08T06:45:23;17.00;;;2.55;;
67363;SDS011;54250;45.572;38.086;2023-08-08T06:47:49;18.85;;;2.17;;
67363;SDS011;54250;45.572;38.086;2023-08-08T06:50:16;9.05;;;2.10;;
67363;SDS011;54250;45.572;38.086;2023-08-08T06:52:42;14.05;;;2.17;;
67363;SDS011;54250;45.572;38.086;2023-08-08T06:55:08;11.65;;;2.13;;
67363;SDS011;54250;45.572;38.086;2023-08-08T06:57:35;10.20;;;3.47;;
67363;SDS011;54250;45.572;38.086;2023-08-08T07:00:01;9.98;;;3.78;;
67363;SDS011;54250;45.572;38.086;2023-08-08T07:02:30;4.47;;;1.92;;
67363;SDS011;54250;45.572;38.086;2023-08-08T07:04:56;6.57;;;1.95;;
67363;SDS011;54250;45.572;38.086;2023-08-08T07:07:22;10.35;;;2.03;;
67363;SDS011;54250;45.572;38.086;2023-08-08T07:09:48;13.27;;;2.15;;
67363;SDS011;54250;45.572;38.086;2023-08-08T07:12:14;10.27;;;1.70;;
67363;SDS011;54250;45.572;38.086;2023-08-08T07:14:40;7.55;;;1.80;;
67363;SDS011;54250;45.572;38.086;2023-08-08T07:17:06;4.18;;;1.95;;
67363;SDS011;54250;45.572;38.086;2023-08-08T07:19:32;9.60;;;2.65;;
67363;SDS011;54250;45.572;38.086;2023-08-08T07:21:58;8.70;;;4.45;;
67363;SDS011;54250;45.572;38.086;2023-08-08T07:24:24;14.57;;;1.85;;
67363;SDS011;54250;45.572;38.086;2023-08-08T07:26:54;5.32;;;1.88;;
67363;SDS011;54250;45.572;38.086;2023-08-08T07:29:21;6.25;;;1.92;;
67363;SDS011;54250;45.572;38.086;2023-08-08T07:31:47;5.82;;;1.58;;
67363;SDS011;54250;45.572;38.086;2023-08-08T07:34:13;5.85;;;1.60;;
67363;SDS011;54250;45.572;38.086;2023-08-08T07:36:39;4.40;;;1.83;;
67363;SDS011;54250;45.572;38.086;2023-08-08T07:39:05;3.08;;;2.10;;
67363;SDS011;54250;45.572;38.086;2023-08-08T07:41:31;2.63;;;1.50;;
67363;SDS011;54250;45.572;38.086;2023-08-08T07:43:57;7.70;;;2.00;;
67363;SDS011;54250;45.572;38.086;2023-08-08T07:46:23;8.52;;;1.77;;
67363;SDS011;54250;45.572;38.086;2023-08-08T07:48:49;4.10;;;1.95;;
67363;SDS011;54250;45.572;38.086;2023-08-08T07:51:15;4.20;;;1.88;;
67363;SDS011;54250;45.572;38.086;2023-08-08T07:53:41;6.70;;;1.50;;
67363;SDS011;54250;45.572;38.086;2023-08-08T07:56:10;8.10;;;1.90;;
67363;SDS011;54250;45.572;38.086;2023-08-08T07:58:36;8.27;;;2.00;;
67363;SDS011;54250;45.572;38.086;2023-08-08T08:01:01;6.10;;;1.67;;
67363;SDS011;54250;45.572;38.086;2023-08-08T08:03:28;2.92;;;1.83;;
67363;SDS011;54250;45.572;38.086;2023-08-08T08:05:54;7.13;;;1.70;;
67363;SDS011;54250;45.572;38.086;2023-08-08T08:08:20;12.05;;;1.70;;
67363;SDS011;54250;45.572;38.086;2023-08-08T08:10:46;9.30;;;1.65;;
67363;SDS011;54250;45.572;38.086;2023-08-08T08:13:13;5.93;;;1.55;;
67363;SDS011;54250;45.572;38.086;2023-08-08T08:15:40;6.97;;;2.15;;
67363;SDS011;54250;45.572;38.086;2023-08-08T08:18:06;8.45;;;1.90;;
67363;SDS011;54250;45.572;38.086;2023-08-08T08:20:32;6.40;;;2.10;;
67363;SDS011;54250;45.572;38.086;2023-08-08T08:22:58;5.90;;;2.10;;
67363;SDS011;54250;45.572;38.086;2023-08-08T08:25:24;7.07;;;1.70;;
67363;SDS011;54250;45.572;38.086;2023-08-08T08:27:51;10.05;;;1.67;;
67363;SDS011;54250;45.572;38.086;2023-08-08T08:30:17;2.50;;;1.50;;
67363;SDS011;54250;45.572;38.086;2023-08-08T08:32:44;4.20;;;1.77;;
67363;SDS011;54250;45.572;38.086;2023-08-08T08:35:10;6.60;;;1.70;;
67363;SDS011;54250;45.572;38.086;2023-08-08T08:37:38;5.22;;;1.90;;
67363;SDS011;54250;45.572;38.086;2023-08-08T08:40:04;7.60;;;1.65;;
67363;SDS011;54250;45.572;38.086;2023-08-08T08:42:30;11.10;;;1.75;;
67363;SDS011;54250;45.572;38.086;2023-08-08T08:44:58;5.32;;;1.95;;
67363;SDS011;54250;45.572;38.086;2023-08-08T08:47:25;8.50;;;1.63;;
67363;SDS011;54250;45.572;38.086;2023-08-08T08:49:52;11.68;;;1.90;;
67363;SDS011;54250;45.572;38.086;2023-08-08T08:52:18;7.18;;;1.85;;
67363;SDS011;54250;45.572;38.086;2023-08-08T08:54:44;5.07;;;1.70;;
67363;SDS011;54250;45.572;38.086;2023-08-08T08:57:10;6.57;;;1.83;;
67363;SDS011;54250;45.572;38.086;2023-08-08T08:59:37;7.55;;;1.88;;
67363;SDS011;54250;45.572;38.086;2023-08-08T09:02:03;6.40;;;2.55;;
67363;SDS011;54250;45.572;38.086;2023-08-08T09:04:29;6.32;;;1.55;;
67363;SDS011;54250;45.572;38.086;2023-08-08T09:06:56;12.27;;;2.10;;
67363;SDS011;54250;45.572;38.086;2023-08-08T09:09:22;6.65;;;1.80;;
67363;SDS011;54250;45.572;38.086;2023-08-08T09:11:52;11.25;;;1.80;;
67363;SDS011;54250;45.572;38.086;2023-08-08T09:14:22;2.53;;;1.77;;
67363;SDS011;54250;45.572;38.086;2023-08-08T09:16:50;5.75;;;2.67;;
67363;SDS011;54250;45.572;38.086;2023-08-08T09:19:20;4.13;;;2.00;;
67363;SDS011;54250;45.572;38.086;2023-08-08T09:21:47;16.70;;;1.85;;
67363;SDS011;54250;45.572;38.086;2023-08-08T09:24:13;5.80;;;1.83;;
67363;SDS011;54250;45.572;38.086;2023-08-08T09:26:40;2.45;;;1.70;;
67363;SDS011;54250;45.572;38.086;2023-08-08T09:29:07;3.40;;;1.60;;
67363;SDS011;54250;45.572;38.086;2023-08-08T09:31:36;3.30;;;1.55;;
67363;SDS011;54250;45.572;38.086;2023-08-08T09:34:03;3.30;;;1.70;;
67363;SDS011;54250;45.572;38.086;2023-08-08T09:36:31;2.92;;;1.65;;
67363;SDS011;54250;45.572;38.086;2023-08-08T09:38:58;5.32;;;1.83;;
67363;SDS011;54250;45.572;38.086;2023-08-08T09:41:25;11.13;;;1.83;;
67363;SDS011;54250;45.572;38.086;2023-08-08T09:43:52;7.03;;;1.75;;
67363;SDS011;54250;45.572;38.086;2023-08-08T09:46:19;5.20;;;1.90;;
67363;SDS011;54250;45.572;38.086;2023-08-08T09:48:46;4.47;;;2.17;;
67363;SDS011;54250;45.572;38.086;2023-08-08T09:51:12;3.30;;;1.80;;
67363;SDS011;54250;45.572;38.086;2023-08-08T09:53:39;3.80;;;1.90;;
67363;SDS011;54250;45.572;38.086;2023-08-08T09:56:06;4.03;;;1.95;;
67363;SDS011;54250;45.572;38.086;2023-08-08T09:58:33;5.15;;;1.95;;
67363;SDS011;54250;45.572;38.086;2023-08-08T10:01:02;5.47;;;2.17;;
67363;SDS011;54250;45.572;38.086;2023-08-08T10:03:30;8.02;;;1.60;;
67363;SDS011;54250;45.572;38.086;2023-08-08T10:05:57;4.10;;;1.80;;
67363;SDS011;54250;45.572;38.086;2023-08-08T10:08:23;5.30;;;1.90;;
67363;SDS011;54250;45.572;38.086;2023-08-08T10:10:50;4.22;;;1.92;;
67363;SDS011;54250;45.572;38.086;2023-08-08T10:13:23;4.00;;;1.90;;
67363;SDS011;54250;45.572;38.086;2023-08-08T10:15:49;7.63;;;1.88;;
67363;SDS011;54250;45.572;38.086;2023-08-08T10:18:17;5.35;;;1.77;;
67363;SDS011;54250;45.572;38.086;2023-08-08T10:20:43;4.65;;;1.92;;
67363;SDS011;54250;45.572;38.086;2023-08-08T10:23:18;11.52;;;2.03;;
67363;SDS011;54250;45.572;38.086;2023-08-08T10:25:45;8.40;;;1.63;;
67363;SDS011;54250;45.572;38.086;2023-08-08T10:28:14;13.13;;;1.92;;
67363;SDS011;54250;45.572;38.086;2023-08-08T10:30:47;4.90;;;2.00;;
67363;SDS011;54250;45.572;38.086;2023-08-08T10:33:18;3.67;;;1.98;;
67363;SDS011;54250;45.572;38.086;2023-08-08T10:38:25;7.55;;;1.73;;
67363;SDS011;54250;45.572;38.086;2023-08-08T10:41:03;8.80;;;2.00;;
67363;SDS011;54250;45.572;38.086;2023-08-08T10:43:29;12.68;;;2.03;;
67363;SDS011;54250;45.572;38.086;2023-08-08T10:45:59;7.50;;;1.80;;
67363;SDS011;54250;45.572;38.086;2023-08-08T10:48:27;3.55;;;2.15;;
67363;SDS011;54250;45.572;38.086;2023-08-08T10:50:59;7.57;;;1.75;;
67363;SDS011;54250;45.572;38.086;2023-08-08T10:55:58;16.33;;;3.50;;
67363;SDS011;54250;45.572;38.086;2023-08-08T10:58:39;3.60;;;2.00;;
67363;SDS011;54250;45.572;38.086;2023-08-08T11:01:06;7.75;;;1.90;;
67363;SDS011;54250;45.572;38.086;2023-08-08T11:03:36;4.63;;;1.73;;
67363;SDS011;54250;45.572;38.086;2023-08-08T11:06:04;6.35;;;2.00;;
67363;SDS011;54250;45.572;38.086;2023-08-08T11:08:31;9.70;;;2.10;;
67363;SDS011;54250;45.572;38.086;2023-08-08T11:10:58;7.07;;;2.88;;
67363;SDS011;54250;45.572;38.086;2023-08-08T11:13:25;10.88;;;3.75;;
67363;SDS011;54250;45.572;38.086;2023-08-08T11:15:51;10.95;;;3.42;;
67363;SDS011;54250;45.572;38.086;2023-08-08T11:18:17;6.65;;;2.65;;
67363;SDS011;54250;45.572;38.086;2023-08-08T11:20:43;10.23;;;2.30;;
67363;SDS011;54250;45.572;38.086;2023-08-08T11:23:10;5.85;;;2.17;;
67363;SDS011;54250;45.572;38.086;2023-08-08T11:25:39;13.07;;;2.13;;
67363;SDS011;54250;45.572;38.086;2023-08-08T11:28:07;3.50;;;2.13;;
67363;SDS011;54250;45.572;38.086;2023-08-08T11:30:34;9.82;;;1.88;;
67363;SDS011;54250;45.572;38.086;2023-08-08T11:33:02;8.45;;;1.95;;
67363;SDS011;54250;45.572;38.086;2023-08-08T11:35:29;6.38;;;2.13;;
67363;SDS011;54250;45.572;38.086;2023-08-08T11:37:58;16.67;;;2.53;;
67363;SDS011;54250;45.572;38.086;2023-08-08T11:40:25;7.90;;;2.00;;
67363;SDS011;54250;45.572;38.086;2023-08-08T11:42:53;9.50;;;2.38;;
67363;SDS011;54250;45.572;38.086;2023-08-08T11:45:21;4.05;;;2.20;;
67363;SDS011;54250;45.572;38.086;2023-08-08T11:47:50;8.02;;;2.67;;
67363;SDS011;54250;45.572;38.086;2023-08-08T11:50:19;3.75;;;2.20;;
67363;SDS011;54250;45.572;38.086;2023-08-08T11:52:46;2.92;;;2.17;;
67363;SDS011;54250;45.572;38.086;2023-08-08T11:55:12;5.07;;;2.22;;
67363;SDS011;54250;45.572;38.086;2023-08-08T11:57:39;5.18;;;1.65;;
67363;SDS011;54250;45.572;38.086;2023-08-08T12:00:09;5.55;;;1.98;;
67363;SDS011;54250;45.572;38.086;2023-08-08T12:02:39;14.35;;;2.78;;
67363;SDS011;54250;45.572;38.086;2023-08-08T12:05:07;13.27;;;2.67;;
67363;SDS011;54250;45.572;38.086;2023-08-08T12:07:36;12.82;;;2.13;;
67363;SDS011;54250;45.572;38.086;2023-08-08T12:10:03;6.72;;;2.30;;
67363;SDS011;54250;45.572;38.086;2023-08-08T12:12:33;6.75;;;2.40;;
67363;SDS011;54250;45.572;38.086;2023-08-08T12:15:05;13.02;;;2.40;;
67363;SDS011;54250;45.572;38.086;2023-08-08T12:17:32;7.82;;;2.10;;
67363;SDS011;54250;45.572;38.086;2023-08-08T12:20:03;8.65;;;2.15;;
67363;SDS011;54250;45.572;38.086;2023-08-08T12:22:31;19.70;;;2.35;;
67363;SDS011;54250;45.572;38.086;2023-08-08T12:24:57;3.30;;;2.20;;
67363;SDS011;54250;45.572;38.086;2023-08-08T12:27:23;10.45;;;2.33;;
67363;SDS011;54250;45.572;38.086;2023-08-08T12:29:49;6.93;;;2.22;;
67363;SDS011;54250;45.572;38.086;2023-08-08T12:32:15;8.77;;;2.30;;
67363;SDS011;54250;45.572;38.086;2023-08-08T12:34:41;9.70;;;2.50;;
67363;SDS011;54250;45.572;38.086;2023-08-08T12:37:10;9.00;;;2.55;;
67363;SDS011;54250;45.572;38.086;2023-08-08T12:39:36;6.47;;;2.30;;
67363;SDS011;54250;45.572;38.086;2023-08-08T12:42:02;14.82;;;2.30;;
67363;SDS011;54250;45.572;38.086;2023-08-08T12:44:28;9.10;;;2.20;;
67363;SDS011;54250;45.572;38.086;2023-08-08T12:46:54;5.03;;;2.47;;
67363;SDS011;54250;45.572;38.086;2023-08-08T12:49:20;4.30;;;2.30;;
67363;SDS011;54250;45.572;38.086;2023-08-08T12:51:46;13.38;;;2.28;;
67363;SDS011;54250;45.572;38.086;2023-08-08T12:54:12;6.95;;;2.88;;
67363;SDS011;54250;45.572;38.086;2023-08-08T12:56:38;9.80;;;2.42;;
67363;SDS011;54250;45.572;38.086;2023-08-08T12:59:04;4.03;;;2.30;;
67363;SDS011;54250;45.572;38.086;2023-08-08T13:01:30;4.95;;;2.33;;
67363;SDS011;54250;45.572;38.086;2023-08-08T13:03:56;8.45;;;2.63;;
67363;SDS011;54250;45.572;38.086;2023-08-08T13:06:22;8.50;;;2.67;;
67363;SDS011;54250;45.572;38.086;2023-08-08T13:08:48;15.48;;;7.75;;
67363;SDS011;54250;45.572;38.086;2023-08-08T13:11:14;10.05;;;4.40;;
67363;SDS011;54250;45.572;38.086;2023-08-08T13:13:40;5.57;;;2.35;;
67363;SDS011;54250;45.572;38.086;2023-08-08T13:16:06;2.85;;;2.20;;
67363;SDS011;54250;45.572;38.086;2023-08-08T13:18:32;8.10;;;2.13;;
67363;SDS011;54250;45.572;38.086;2023-08-08T13:20:58;19.77;;;9.40;;
67363;SDS011;54250;45.572;38.086;2023-08-08T13:23:24;9.55;;;3.80;;
67363;SDS011;54250;45.572;38.086;2023-08-08T13:25:50;12.82;;;4.75;;
67363;SDS011;54250;45.572;38.086;2023-08-08T13:28:16;4.80;;;2.67;;
67363;SDS011;54250;45.572;38.086;2023-08-08T13:30:44;11.73;;;1.88;;
67363;SDS011;54250;45.572;38.086;2023-08-08T13:33:10;5.80;;;2.10;;
67363;SDS011;54250;45.572;38.086;2023-08-08T13:35:36;17.63;;;2.55;;
67363;SDS011;54250;45.572;38.086;2023-08-08T13:38:02;7.22;;;2.10;;
67363;SDS011;54250;45.572;38.086;2023-08-08T13:40:28;8.18;;;2.13;;
67363;SDS011;54250;45.572;38.086;2023-08-08T13:42:54;9.15;;;2.15;;
67363;SDS011;54250;45.572;38.086;2023-08-08T13:45:20;5.47;;;2.30;;
67363;SDS011;54250;45.572;38.086;2023-08-08T13:47:48;3.80;;;2.33;;
67363;SDS011;54250;45.572;38.086;2023-08-08T13:50:15;2.85;;;2.03;;
67363;SDS011;54250;45.572;38.086;2023-08-08T13:52:41;9.15;;;2.00;;
67363;SDS011;54250;45.572;38.086;2023-08-08T13:55:07;7.72;;;2.20;;
67363;SDS011;54250;45.572;38.086;2023-08-08T13:57:34;3.83;;;2.25;;
67363;SDS011;54250;45.572;38.086;2023-08-08T14:00:01;4.43;;;2.17;;
67363;SDS011;54250;45.572;38.086;2023-08-08T14:02:33;10.80;;;2.45;;
67363;SDS011;54250;45.572;38.086;2023-08-08T14:04:59;10.82;;;2.63;;
67363;SDS011;54250;45.572;38.086;2023-08-08T14:07:24;7.88;;;2.05;;
67363;SDS011;54250;45.572;38.086;2023-08-08T14:09:50;5.50;;;2.08;;
67363;SDS011;54250;45.572;38.086;2023-08-08T14:12:17;7.15;;;2.03;;
67363;SDS011;54250;45.572;38.086;2023-08-08T14:14:42;5.55;;;1.85;;
67363;SDS011;54250;45.572;38.086;2023-08-08T14:17:08;5.50;;;1.73;;
67363;SDS011;54250;45.572;38.086;2023-08-08T14:19:34;3.72;;;1.80;;
67363;SDS011;54250;45.572;38.086;2023-08-08T14:22:00;4.35;;;1.98;;
67363;SDS011;54250;45.572;38.086;2023-08-08T14:24:26;4.57;;;1.90;;
67363;SDS011;54250;45.572;38.086;2023-08-08T14:26:52;10.75;;;2.00;;
67363;SDS011;54250;45.572;38.086;2023-08-08T14:29:18;4.00;;;2.00;;